Terminal Aerodrome Forecast
Issued by NWS

Home | Current Version | Previous Version | Text Only | Print | Product List | Glossary On
Versions: 1 2 3 4 5 6 7 8 9 10 11 12
000
FTUS46 KSTO 142300
TAFSAC
TAF
KSAC 142328Z 1500/1524 21007KT P6SM FEW250
     FM150500 18005KT P6SM SCT250
      TEMPO 1512/1516 SCT120
     FM151800 21007KT P6SM SCT250=

USA.gov is the U.S. government's official web portal to all federal, state and local government web resources and services.